Time;durP1;ratioP1;P1;durP2;ratioP2;P2;SDS_P1;SDS_P2;PMS_P1;PMS_P2;Temp;Humidity;BMP_temperature;BMP_pressure;BME280_temperature;BME280_humidity;BME280_pressure;Samples;Min_cycle;Max_cycle;Signal;HPM_P1;HPM_P2
2022/05/28 00:00:03;;;;;;;2.63;0.63;;;;;;;7.94;93.11;101010.03;6049955;28;20049;-68
2022/05/28 00:02:58;;;;;;;1.67;0.90;;;;;;;7.98;93.15;100989.53;6049752;28;20054;-66
2022/05/28 00:05:54;;;;;;;2.60;0.90;;;;;;;7.95;93.09;100981.84;6044082;28;20476;-66
2022/05/28 00:08:49;;;;;;;1.57;0.70;;;;;;;8.02;93.70;100997.06;6050625;28;20285;-66
2022/05/28 00:11:44;;;;;;;4.27;0.97;;;;;;;7.90;93.72;100989.28;6049735;28;20120;-68
2022/05/28 00:14:40;;;;;;;3.75;0.75;;;;;;;7.96;94.28;100999.38;6049294;28;20265;-66
2022/05/28 00:17:36;;;;;;;3.25;0.80;;;;;;;7.91;94.96;100985.69;6050033;28;20138;-66
2022/05/28 00:20:31;;;;;;;5.22;0.73;;;;;;;7.91;94.73;100978.59;6048202;28;20092;-66
2022/05/28 00:23:26;;;;;;;5.70;0.87;;;;;;;7.90;94.55;100978.72;6052012;28;20045;-67
2022/05/28 00:26:22;;;;;;;6.03;0.73;;;;;;;7.95;94.93;100966.84;6050365;28;20025;-66
2022/05/28 00:29:17;;;;;;;3.80;0.80;;;;;;;8.07;94.78;100975.59;6048473;28;20362;-67
2022/05/28 00:32:12;;;;;;;2.03;1.00;;;;;;;8.02;94.55;100961.88;6049638;28;20037;-67
2022/05/28 00:35:11;;;;;;;4.57;1.00;;;;;;;8.09;94.36;100958.66;6049237;28;20114;-66
2022/05/28 00:38:06;;;;;;;2.25;0.90;;;;;;;8.13;93.99;100952.13;6059680;28;20440;-66
2022/05/28 00:41:01;;;;;;;3.80;0.90;;;;;;;8.21;93.76;100960.28;6053663;28;20033;-66
2022/05/28 00:43:57;;;;;;;7.13;1.00;;;;;;;8.25;93.80;100960.88;6052946;28;20072;-66
2022/05/28 00:46:54;;;;;;;6.70;1.00;;;;;;;8.21;93.95;100956.78;6056850;28;20037;-66
2022/05/28 00:49:51;;;;;;;3.78;1.05;;;;;;;8.28;93.60;100955.38;6047265;28;20088;-66
2022/05/28 00:52:46;;;;;;;5.95;1.10;;;;;;;8.36;93.81;100952.94;6053128;28;20044;-66
2022/05/28 00:55:42;;;;;;;9.07;1.50;;;;;;;8.50;93.32;100963.22;6049650;28;20056;-67
2022/05/28 00:58:37;;;;;;;4.93;1.20;;;;;;;8.49;92.63;100955.41;6048210;28;20040;-66
2022/05/28 01:01:34;;;;;;;9.82;0.98;;;;;;;8.67;92.23;100982.97;6058623;28;20033;-66
2022/05/28 01:04:48;;;;;;;3.88;1.15;;;;;;;8.66;91.37;100979.50;6053301;28;20041;-67
2022/05/28 01:07:56;;;;;;;4.32;0.90;;;;;;;8.41;89.27;100981.63;6054374;28;20068;-66
2022/05/28 01:11:14;;;;;;;2.13;0.60;;;;;;;8.38;89.15;100986.22;6071100;28;20469;-66
2022/05/28 01:14:22;;;;;;;3.63;0.68;;;;;;;7.83;89.19;100980.19;6060947;28;20038;-69
2022/05/28 01:17:56;;;;;;;0.90;0.60;;;;;;;7.32;89.89;100948.16;6053203;28;20042;-68
2022/05/28 01:20:55;;;;;;;2.53;0.75;;;;;;;7.29;92.51;100945.75;6039223;28;20070;-68
2022/05/28 01:24:28;;;;;;;6.03;1.48;;;;;;;7.49;93.21;100959.09;6052945;28;20041;-68
2022/05/28 01:27:31;;;;;;;4.97;1.73;;;;;;;7.64;95.01;100951.75;6032836;28;20393;-69
2022/05/28 01:30:26;;;;;;;3.30;1.40;;;;;;;7.87;95.41;100952.56;6068183;28;20045;-68
2022/05/28 01:33:22;;;;;;;7.18;2.17;;;;;;;7.95;96.50;100929.88;6051479;28;20454;-69
2022/05/28 01:36:18;;;;;;;5.78;1.67;;;;;;;8.11;97.26;100946.16;6052350;28;20037;-68
2022/05/28 01:39:14;;;;;;;11.07;1.70;;;;;;;8.20;97.35;100940.13;6052779;28;20038;-68
2022/05/28 01:42:10;;;;;;;8.50;1.55;;;;;;;8.15;97.30;100926.44;6052929;28;20053;-69
2022/05/28 01:45:06;;;;;;;3.50;1.60;;;;;;;8.20;97.76;100928.72;6053457;28;20062;-67
2022/05/28 01:48:04;;;;;;;4.82;1.63;;;;;;;8.08;98.18;100925.28;6050953;28;20058;-68
2022/05/28 01:51:01;;;;;;;7.35;1.52;;;;;;;8.21;98.71;100923.28;6078158;28;20068;-67
2022/05/28 01:54:11;;;;;;;5.53;1.42;;;;;;;8.15;98.10;100923.78;6057000;28;20503;-68
2022/05/28 01:57:07;;;;;;;6.78;1.55;;;;;;;8.20;98.65;100913.72;6068181;28;20485;-67
2022/05/28 02:00:04;;;;;;;8.10;1.40;;;;;;;8.07;98.31;100906.91;6052177;28;20037;-67
2022/05/28 02:03:00;;;;;;;3.65;1.10;;;;;;;7.96;98.52;100907.81;6051892;28;20421;-67
2022/05/28 02:05:55;;;;;;;7.63;1.35;;;;;;;7.91;97.77;100907.31;6055006;28;20092;-67
2022/05/28 02:08:51;;;;;;;4.93;1.30;;;;;;;7.75;98.08;100898.94;6054086;28;20025;-66
2022/05/28 02:12:02;;;;;;;6.82;1.40;;;;;;;7.73;97.79;100914.06;6050898;28;20113;-66
2022/05/28 02:15:16;;;;;;;3.53;1.00;;;;;;;7.69;97.96;100917.94;6050304;28;20037;-66
2022/05/28 02:18:52;;;;;;;1.60;1.00;;;;;;;7.63;97.81;100915.78;6051949;28;20033;-67
2022/05/28 02:22:07;;;;;;;4.88;1.17;;;;;;;7.57;98.10;100909.19;6071266;28;20054;-66
2022/05/28 02:25:14;;;;;;;5.30;1.00;;;;;;;7.50;97.78;100928.28;6067688;28;20034;-66
2022/05/28 02:28:10;;;;;;;5.63;1.02;;;;;;;7.37;97.53;100909.06;6051152;28;20034;-66
2022/05/28 02:31:11;;;;;;;2.53;1.00;;;;;;;7.34;97.97;100918.06;6050447;28;20060;-67
2022/05/28 02:34:07;;;;;;;2.95;0.93;;;;;;;7.23;97.96;100906.69;6042893;28;20057;-66
2022/05/28 02:37:02;;;;;;;2.27;1.10;;;;;;;7.32;98.10;100921.78;6051399;28;20075;-66
2022/05/28 02:39:57;;;;;;;3.63;1.17;;;;;;;7.24;98.62;100905.72;6060434;28;20481;-66
2022/05/28 02:42:53;;;;;;;5.80;1.27;;;;;;;7.29;98.95;100908.84;6050680;28;20030;-66
2022/05/28 02:45:48;;;;;;;2.67;1.23;;;;;;;7.24;98.53;100908.38;6050232;28;20284;-67
2022/05/28 02:48:45;;;;;;;5.82;1.35;;;;;;;7.30;99.36;100910.53;6054456;28;20088;-65
2022/05/28 02:51:41;;;;;;;6.65;1.88;;;;;;;7.34;99.37;100907.53;6050032;28;20034;-66
2022/05/28 02:54:36;;;;;;;7.10;1.60;;;;;;;7.34;98.61;100878.50;6050752;28;20076;-65
2022/05/28 02:57:32;;;;;;;6.35;1.60;;;;;;;7.40;99.12;100907.03;6051059;28;20030;-66
2022/05/28 03:00:27;;;;;;;8.43;1.67;;;;;;;7.45;98.69;100902.25;6049565;28;20141;-66
2022/05/28 03:03:22;;;;;;;7.63;1.80;;;;;;;7.57;98.62;100903.06;6061821;28;20046;-66
2022/05/28 03:06:18;;;;;;;15.63;3.28;;;;;;;7.63;98.51;100914.00;6050772;28;20038;-66
2022/05/28 03:09:15;;;;;;;4.40;1.67;;;;;;;7.62;98.32;100898.25;6059955;28;20037;-66
2022/05/28 03:12:11;;;;;;;10.98;2.20;;;;;;;7.60;97.89;100908.94;6050297;28;20087;-66
2022/05/28 03:15:07;;;;;;;7.10;2.08;;;;;;;7.59;97.62;100911.69;6050466;28;20478;-66
2022/05/28 03:18:03;;;;;;;9.35;1.77;;;;;;;7.68;97.96;100911.81;6052151;28;20474;-67
2022/05/28 03:20:58;;;;;;;10.35;2.13;;;;;;;7.68;97.92;100916.25;6049066;28;20083;-66
2022/05/28 03:23:53;;;;;;;11.43;1.50;;;;;;;7.63;97.57;100908.72;6050181;28;20534;-66
2022/05/28 03:26:48;;;;;;;9.27;2.17;;;;;;;7.68;97.61;100921.53;6051209;28;20040;-66
2022/05/28 03:29:44;;;;;;;5.17;1.60;;;;;;;7.67;96.95;100917.19;6050564;28;20046;-66
2022/05/28 03:32:39;;;;;;;3.53;1.47;;;;;;;7.65;97.15;100911.22;6050210;28;20551;-66
2022/05/28 03:35:35;;;;;;;3.27;1.20;;;;;;;7.67;97.54;100920.69;6050088;28;20105;-66
2022/05/28 03:38:31;;;;;;;11.05;1.85;;;;;;;7.63;97.48;100910.50;6050708;28;20419;-64
2022/05/28 03:41:28;;;;;;;3.85;1.45;;;;;;;7.66;97.89;100921.63;6050727;28;20585;-64
2022/05/28 03:44:23;;;;;;;8.75;1.85;;;;;;;7.69;97.90;100918.75;6051199;28;20477;-65
2022/05/28 03:47:19;;;;;;;5.67;2.87;;;;;;;7.70;97.91;100935.44;6051636;28;20064;-64
2022/05/28 03:50:14;;;;;;;6.37;1.83;;;;;;;7.72;97.99;100930.88;6048896;28;20042;-64
2022/05/28 03:53:09;;;;;;;4.97;1.60;;;;;;;7.68;97.43;100922.38;6052818;28;20038;-64
2022/05/28 03:56:04;;;;;;;8.97;1.50;;;;;;;7.76;97.68;100929.66;6050159;28;20358;-64
2022/05/28 03:59:00;;;;;;;5.67;1.70;;;;;;;7.78;97.91;100933.03;6064730;28;20272;-64
2022/05/28 04:01:56;;;;;;;9.98;1.77;;;;;;;7.79;97.85;100934.72;6051204;28;20105;-64
2022/05/28 04:04:51;;;;;;;8.63;1.60;;;;;;;7.80;97.58;100939.84;6049635;28;20480;-65
2022/05/28 04:07:46;;;;;;;9.95;1.88;;;;;;;7.84;97.34;100937.81;6051290;28;20049;-64
2022/05/28 04:10:42;;;;;;;4.37;1.37;;;;;;;7.88;97.19;100926.03;6048677;28;20041;-64
2022/05/28 04:13:37;;;;;;;12.53;2.10;;;;;;;7.92;96.82;100935.41;6050191;28;20025;-64
2022/05/28 04:16:33;;;;;;;7.23;1.53;;;;;;;8.01;96.61;100939.94;6056559;28;20116;-64
2022/05/28 04:19:28;;;;;;;10.40;1.73;;;;;;;8.06;96.08;100937.78;6055576;28;20038;-65
2022/05/28 04:22:24;;;;;;;6.00;1.57;;;;;;;8.25;95.45;100940.59;6058722;28;20033;-65
2022/05/28 04:25:19;;;;;;;6.50;1.33;;;;;;;8.52;94.87;100941.94;6049381;28;20276;-65
2022/05/28 04:28:14;;;;;;;6.03;1.20;;;;;;;8.63;93.84;100947.19;6048439;28;20045;-64
2022/05/28 04:31:10;;;;;;;10.83;2.23;;;;;;;8.67;92.37;100941.50;6062024;28;20125;-65
2022/05/28 04:34:05;;;;;;;5.80;1.85;;;;;;;8.65;92.86;100950.53;6050341;28;20748;-65
2022/05/28 04:37:00;;;;;;;8.80;1.87;;;;;;;8.65;92.83;100934.66;6053139;28;20069;-65
2022/05/28 04:39:55;;;;;;;7.63;1.60;;;;;;;8.87;92.72;100940.69;6054572;28;20131;-65
2022/05/28 04:42:51;;;;;;;5.63;1.30;;;;;;;9.18;90.10;100935.44;6052714;28;20034;-64
2022/05/28 04:45:46;;;;;;;5.35;1.27;;;;;;;8.89;90.35;100941.38;6054053;28;20022;-65
2022/05/28 04:48:41;;;;;;;7.50;1.70;;;;;;;8.68;90.95;100924.69;6054821;28;20624;-65
2022/05/28 04:51:37;;;;;;;6.97;1.93;;;;;;;8.67;90.96;100938.03;6052952;28;20473;-65
2022/05/28 04:54:32;;;;;;;5.13;1.40;;;;;;;8.62;91.14;100930.47;6054638;28;20104;-65
2022/05/28 04:57:27;;;;;;;10.57;1.40;;;;;;;8.85;90.54;100936.50;6053755;28;20041;-65
2022/05/28 05:00:25;;;;;;;6.20;1.27;;;;;;;9.07;89.77;100944.28;6059490;28;20029;-66
2022/05/28 05:03:20;;;;;;;9.52;2.35;;;;;;;9.29;88.96;100930.91;6052861;28;20261;-66
2022/05/28 05:06:16;;;;;;;8.07;1.02;;;;;;;9.35;88.18;100934.78;6056984;28;20065;-66
2022/05/28 05:09:11;;;;;;;5.90;1.70;;;;;;;9.61;86.42;100946.63;6053585;28;20119;-66
2022/05/28 05:12:07;;;;;;;6.03;1.20;;;;;;;9.68;86.19;100946.91;6048531;28;20285;-65
2022/05/28 05:15:02;;;;;;;11.43;1.77;;;;;;;9.92;85.48;100942.94;6052352;28;20034;-65
2022/05/28 05:17:57;;;;;;;6.53;1.23;;;;;;;9.82;84.81;100949.19;6053052;28;20030;-65
2022/05/28 05:20:53;;;;;;;7.17;1.30;;;;;;;9.94;84.56;100942.81;6053987;28;20493;-65
2022/05/28 05:23:48;;;;;;;5.67;1.27;;;;;;;9.68;84.64;100962.78;6053312;28;20026;-65
2022/05/28 05:26:43;;;;;;;10.27;1.40;;;;;;;9.55;85.77;100963.03;6052727;28;20034;-65
2022/05/28 05:29:39;;;;;;;6.00;1.30;;;;;;;9.59;85.22;100946.72;6053375;28;20034;-65
2022/05/28 05:32:35;;;;;;;7.18;1.20;;;;;;;9.80;83.36;100951.13;6052022;28;20104;-65
2022/05/28 05:35:30;;;;;;;5.00;1.17;;;;;;;9.80;83.67;100961.72;6057466;28;20053;-65
2022/05/28 05:38:25;;;;;;;7.43;1.30;;;;;;;9.67;82.97;100956.69;6052951;28;20029;-66
2022/05/28 05:41:21;;;;;;;8.77;1.70;;;;;;;9.96;82.84;100967.34;6051817;28;20112;-65
2022/05/28 05:44:16;;;;;;;7.63;1.40;;;;;;;10.05;82.32;100959.44;6046213;28;20041;-65
2022/05/28 05:47:12;;;;;;;6.55;1.27;;;;;;;9.70;83.41;100966.16;6051022;28;20443;-65
2022/05/28 05:50:07;;;;;;;6.90;1.23;;;;;;;9.63;84.66;100970.28;6064395;28;20074;-65
2022/05/28 05:53:03;;;;;;;11.65;1.70;;;;;;;9.42;86.17;100973.84;6052059;28;20030;-65
2022/05/28 05:55:58;;;;;;;10.90;1.40;;;;;;;9.31;86.26;100978.38;6069689;28;20546;-65
2022/05/28 05:58:53;;;;;;;6.40;1.20;;;;;;;9.38;86.40;100982.16;6052989;28;20288;-65
2022/05/28 06:01:49;;;;;;;9.87;1.57;;;;;;;9.41;86.13;100969.50;6047271;28;20037;-66
2022/05/28 06:04:44;;;;;;;7.20;1.50;;;;;;;9.39;85.13;100971.47;6060197;28;20033;-65
2022/05/28 06:07:39;;;;;;;8.03;1.73;;;;;;;9.44;85.03;100976.34;6050713;28;20088;-65
2022/05/28 06:10:35;;;;;;;6.27;1.30;;;;;;;9.52;84.52;100980.03;6053226;28;20486;-65
2022/05/28 06:13:30;;;;;;;4.73;1.37;;;;;;;9.73;83.73;100982.59;6053184;28;20288;-65
2022/05/28 06:16:26;;;;;;;11.13;1.33;;;;;;;10.06;83.06;100976.16;6052854;28;20060;-65
2022/05/28 06:19:21;;;;;;;7.45;1.40;;;;;;;10.63;80.52;100991.31;6054305;28;20481;-65
2022/05/28 06:22:16;;;;;;;7.25;1.30;;;;;;;10.81;78.31;100975.53;6050863;28;20026;-65
2022/05/28 06:25:12;;;;;;;6.57;1.30;;;;;;;10.71;78.50;100981.69;6050710;28;20034;-65
2022/05/28 06:28:07;;;;;;;8.65;1.27;;;;;;;10.86;78.39;100979.44;6051322;28;20033;-65
2022/05/28 06:31:05;;;;;;;5.53;1.37;;;;;;;10.81;76.48;100992.31;6050606;28;20038;-65
2022/05/28 06:34:00;;;;;;;7.68;1.33;;;;;;;10.88;75.89;100981.94;6051071;28;20633;-65
2022/05/28 06:36:55;;;;;;;6.40;1.27;;;;;;;10.89;75.75;100994.25;6061234;28;20048;-66
2022/05/28 06:39:51;;;;;;;8.03;1.40;;;;;;;11.00;75.53;100994.09;6051492;28;20037;-65
2022/05/28 06:42:47;;;;;;;5.50;1.27;;;;;;;10.92;76.40;100994.81;6050588;28;20064;-65
2022/05/28 06:45:42;;;;;;;11.82;1.70;;;;;;;10.85;75.12;100998.13;6050731;28;20030;-65
2022/05/28 06:48:37;;;;;;;8.67;1.93;;;;;;;10.80;75.99;101000.38;6051477;28;20042;-65
2022/05/28 06:51:33;;;;;;;5.80;1.13;;;;;;;10.80;76.24;101005.69;6054295;28;20028;-66
2022/05/28 06:54:28;;;;;;;6.07;1.85;;;;;;;10.97;74.96;101002.34;6058220;28;20273;-65
2022/05/28 06:57:24;;;;;;;8.63;1.37;;;;;;;10.97;74.46;100999.69;6055911;28;20147;-65
2022/05/28 07:00:19;;;;;;;5.35;1.58;;;;;;;11.18;74.04;100997.69;6051471;28;20053;-65
2022/05/28 07:03:18;;;;;;;5.72;1.80;;;;;;;11.39;73.92;101008.13;6049571;28;20033;-65
2022/05/28 07:06:14;;;;;;;8.10;1.77;;;;;;;11.67;72.15;100999.22;6060794;28;20034;-65
2022/05/28 07:09:09;;;;;;;7.60;1.30;;;;;;;11.55;72.91;101008.38;6047559;28;20050;-65
2022/05/28 07:12:05;;;;;;;4.78;1.30;;;;;;;11.46;73.01;101014.53;6063882;28;20076;-65
2022/05/28 07:15:01;;;;;;;2.50;1.08;;;;;;;11.21;73.15;101006.22;6052188;28;20037;-65
2022/05/28 07:17:56;;;;;;;8.98;2.33;;;;;;;11.24;73.57;101010.38;6050189;28;20512;-65
2022/05/28 07:20:51;;;;;;;11.50;1.37;;;;;;;11.20;72.53;101019.59;6049339;28;20122;-65
2022/05/28 07:23:47;;;;;;;8.55;1.13;;;;;;;11.27;73.05;101015.41;6049405;28;20034;-65
2022/05/28 07:26:42;;;;;;;5.83;1.20;;;;;;;11.29;73.69;101008.13;6050228;28;20396;-66
2022/05/28 07:29:39;;;;;;;4.30;1.20;;;;;;;11.17;74.67;101015.41;6050051;28;20043;-65
2022/05/28 07:32:34;;;;;;;7.28;1.70;;;;;;;11.69;74.25;101010.56;6049581;28;20587;-65
2022/05/28 07:35:29;;;;;;;7.70;1.30;;;;;;;12.37;72.11;101010.06;6050013;28;20079;-65
2022/05/28 07:38:26;;;;;;;6.03;0.83;;;;;;;12.39;71.84;101007.25;6055317;28;20037;-66
2022/05/28 07:41:23;;;;;;;12.30;2.00;;;;;;;11.81;71.89;101012.06;6049470;28;20030;-66
2022/05/28 07:44:19;;;;;;;7.07;1.02;;;;;;;11.36;73.50;101020.69;6049568;28;20109;-65
2022/05/28 07:47:14;;;;;;;8.27;1.58;;;;;;;11.25;73.45;101009.41;6049170;28;20037;-65
2022/05/28 07:50:09;;;;;;;8.32;1.05;;;;;;;11.22;73.39;101018.47;6057769;28;20488;-66
2022/05/28 07:53:05;;;;;;;9.57;1.53;;;;;;;11.42;74.14;101029.06;6048189;28;20037;-66
2022/05/28 07:56:01;;;;;;;12.45;2.00;;;;;;;11.49;72.22;101020.41;6050033;28;20030;-65
2022/05/28 07:58:59;;;;;;;8.18;3.22;;;;;;;11.48;72.21;101023.19;6052880;28;20413;-65
2022/05/28 08:01:55;;;;;;;11.98;1.52;;;;;;;11.49;70.66;101017.75;6049207;28;20038;-66
2022/05/28 08:04:50;;;;;;;10.30;1.50;;;;;;;11.55;71.41;101013.69;6047863;28;20037;-65
2022/05/28 08:07:46;;;;;;;4.57;1.13;;;;;;;11.92;71.40;101007.41;6049766;28;20048;-66
2022/05/28 08:10:41;;;;;;;6.17;1.10;;;;;;;12.27;68.96;101003.97;6061423;28;20034;-66
2022/05/28 08:13:37;;;;;;;8.13;1.77;;;;;;;12.21;69.37;101012.53;6054056;28;20257;-65
2022/05/28 08:16:33;;;;;;;7.75;1.50;;;;;;;12.65;69.04;101005.53;6053618;28;20030;-65
2022/05/28 08:19:31;;;;;;;7.28;1.23;;;;;;;13.27;66.81;101001.88;6053740;28;20493;-65
2022/05/28 08:25:48;;;;;;;7.43;1.52;;;;;;;14.00;63.04;101008.44;6025606;28;20564;-66
2022/05/28 08:28:43;;;;;;;7.75;1.73;;;;;;;13.70;62.08;101000.97;6057169;28;20038;-66
2022/05/28 08:31:39;;;;;;;10.10;1.83;;;;;;;12.80;65.26;101006.63;6064926;28;20075;-66
2022/05/28 08:34:34;;;;;;;5.57;1.37;;;;;;;12.81;66.98;101021.63;6057809;28;20034;-65
2022/05/28 08:37:29;;;;;;;4.57;1.23;;;;;;;13.07;66.30;101009.22;6059586;28;20037;-66
2022/05/28 08:40:25;;;;;;;9.70;1.50;;;;;;;13.01;65.81;101020.50;6059374;28;20044;-66
2022/05/28 08:43:20;;;;;;;6.00;1.20;;;;;;;13.18;66.42;101017.97;6057665;28;20115;-67
2022/05/28 08:46:16;;;;;;;6.77;1.50;;;;;;;13.41;65.70;101008.47;6051476;28;20034;-66
2022/05/28 08:49:13;;;;;;;6.28;1.48;;;;;;;13.41;65.64;101003.16;6054355;28;20045;-66
2022/05/28 08:52:15;;;;;;;11.02;1.55;;;;;;;14.05;64.69;101008.78;6062873;28;20034;-66
2022/05/28 08:55:14;;;;;;;6.82;1.38;;;;;;;13.87;63.11;101015.22;6053363;28;20030;-66
2022/05/28 08:58:13;;;;;;;6.18;1.35;;;;;;;13.35;64.18;101011.75;6066279;28;20034;-66
2022/05/28 09:01:17;;;;;;;7.45;1.73;;;;;;;13.54;64.99;101003.56;6051641;28;20037;-67
2022/05/28 09:04:26;;;;;;;6.03;1.27;;;;;;;13.88;62.55;100990.25;6058387;28;20036;-67
2022/05/28 09:07:22;;;;;;;5.57;1.38;;;;;;;13.80;63.35;101003.53;6054170;28;20065;-66
2022/05/28 09:10:17;;;;;;;5.65;2.47;;;;;;;14.04;63.45;100991.13;6056471;28;20049;-66
2022/05/28 09:13:24;;;;;;;6.60;1.30;;;;;;;14.63;62.09;100987.47;6056498;28;20061;-66
2022/05/28 09:16:25;;;;;;;3.28;1.23;;;;;;;14.45;61.23;101015.28;6048418;28;20030;-66
2022/05/28 09:19:27;;;;;;;10.18;1.30;;;;;;;14.62;61.49;100992.97;6088753;28;20116;-66
2022/05/28 09:22:24;;;;;;;7.25;2.85;;;;;;;14.58;59.31;100988.94;6079658;28;20030;-66
2022/05/28 09:25:22;;;;;;;5.60;1.20;;;;;;;14.87;59.49;100997.31;6091258;28;20100;-66
2022/05/28 09:28:23;;;;;;;5.32;1.45;;;;;;;14.63;60.37;100986.63;6053607;28;20473;-66
2022/05/28 09:31:33;;;;;;;5.28;1.05;;;;;;;14.75;60.31;100988.81;6051731;28;20449;-66
2022/05/28 09:34:33;;;;;;;7.68;1.20;;;;;;;14.47;59.20;100997.28;6051215;28;20091;-65
2022/05/28 09:37:52;;;;;;;3.58;1.00;;;;;;;13.77;60.72;101003.84;6055302;28;20033;-67
2022/05/28 09:40:54;;;;;;;10.32;1.60;;;;;;;12.89;67.95;101044.81;6052674;28;20061;-67
2022/05/28 09:43:55;;;;;;;5.65;1.48;;;;;;;11.41;77.90;101051.31;6089853;28;20034;-65
2022/05/28 09:46:51;;;;;;;6.55;1.75;;;;;;;10.96;82.49;101045.75;6055430;28;20121;-65
2022/05/28 09:50:04;;;;;;;8.73;1.70;;;;;;;10.84;80.28;101057.50;6058218;28;20029;-65
2022/05/28 09:56:24;;;;;;;10.55;2.15;;;;;;;11.25;80.75;101039.44;6052320;28;20034;-66
2022/05/28 09:59:22;;;;;;;4.28;1.60;;;;;;;12.06;80.29;101024.69;6041119;28;20038;-67
2022/05/28 10:02:32;;;;;;;6.93;1.77;;;;;;;12.56;76.57;101027.69;6057351;28;20504;-67
2022/05/28 10:05:28;;;;;;;3.65;1.27;;;;;;;12.61;74.87;101014.78;6056916;28;20034;-66
2022/05/28 10:08:31;;;;;;;8.53;1.57;;;;;;;12.95;73.08;101007.78;6052219;28;20048;-66
2022/05/28 10:11:26;;;;;;;7.00;1.33;;;;;;;13.41;70.48;101011.13;6057161;28;20025;-67
2022/05/28 10:14:23;;;;;;;7.23;1.60;;;;;;;13.93;69.64;101006.59;6053395;28;20096;-66
2022/05/28 10:17:24;;;;;;;5.95;1.40;;;;;;;14.26;66.55;101003.88;6058669;28;20036;-67
2022/05/28 10:20:20;;;;;;;4.10;1.10;;;;;;;14.25;63.57;101010.19;6050623;28;20493;-66
2022/05/28 10:23:17;;;;;;;5.07;1.05;;;;;;;14.28;62.06;100987.69;6055987;28;20108;-66
2022/05/28 10:26:30;;;;;;;4.53;1.25;;;;;;;14.33;61.03;100996.06;6051708;28;20040;-66
2022/05/28 10:29:31;;;;;;;4.10;1.30;;;;;;;14.64;60.21;100980.28;6052704;28;20026;-67
2022/05/28 10:32:48;;;;;;;8.73;1.15;;;;;;;14.90;59.30;100989.81;6072312;28;20026;-66
2022/05/28 10:35:43;;;;;;;7.30;1.13;;;;;;;14.90;58.06;100981.78;6062105;28;20561;-66
2022/05/28 10:38:39;;;;;;;8.00;2.17;;;;;;;15.19;58.60;100980.44;6063144;28;20033;-67
2022/05/28 10:41:35;;;;;;;7.68;1.40;;;;;;;15.39;57.72;100973.72;6066173;28;20116;-66
2022/05/28 10:44:32;;;;;;;5.22;1.30;;;;;;;15.25;56.94;100987.75;6051081;28;20056;-67
2022/05/28 10:47:45;;;;;;;7.88;1.65;;;;;;;14.93;58.98;100993.97;6050449;28;20034;-67
2022/05/28 10:51:05;;;;;;;3.92;1.13;;;;;;;14.62;57.23;100987.63;6050504;28;20394;-67
2022/05/28 10:54:12;;;;;;;;;;;;;;;14.94;57.80;100994.81;6050744;28;20485;-67
2022/05/28 10:57:45;;;;;;;6.78;1.60;;;;;;;14.34;60.75;100991.59;6051053;28;19917;-66
2022/05/28 11:01:00;;;;;;;6.75;1.58;;;;;;;13.13;71.12;101011.28;6049462;28;20125;-65
2022/05/28 11:04:23;;;;;;;7.20;1.58;;;;;;;10.56;83.09;101045.88;6050862;28;20039;-68
2022/05/28 11:07:42;;;;;;;4.90;1.80;;;;;;;9.98;88.13;101039.56;6050970;28;20033;-67
2022/05/28 11:10:46;;;;;;;3.78;1.25;;;;;;;9.92;90.77;101034.84;6049872;28;20030;-67
2022/05/28 11:14:18;;;;;;;3.33;1.27;;;;;;;9.97;90.34;101033.41;6070723;28;20121;-66
2022/05/28 11:17:16;;;;;;;6.50;1.42;;;;;;;10.24;89.54;101021.41;6059535;28;20044;-67
2022/05/28 11:20:32;;;;;;;7.63;1.40;;;;;;;10.74;87.52;101021.19;6065102;28;20037;-67
2022/05/28 11:23:49;;;;;;;6.03;1.30;;;;;;;11.39;86.16;101016.09;6050788;28;20532;-66
2022/05/28 11:27:01;;;;;;;4.10;1.55;;;;;;;12.00;81.24;101019.09;6048525;28;20037;-66
2022/05/28 11:30:07;;;;;;;4.85;1.30;;;;;;;12.66;82.28;101023.16;6049926;28;20040;-66
2022/05/28 11:33:08;;;;;;;4.40;1.10;;;;;;;12.94;77.50;101019.41;6050829;28;20492;-66
2022/05/28 11:36:28;;;;;;;9.98;2.08;;;;;;;13.16;72.56;101009.28;6069489;28;20029;-66
2022/05/28 11:39:38;;;;;;;4.07;1.10;;;;;;;13.20;69.92;101000.84;6061590;28;20052;-66
2022/05/28 11:42:44;;;;;;;2.22;0.90;;;;;;;13.77;70.93;101003.84;6066654;28;20037;-66
2022/05/28 11:46:29;;;;;;;4.80;1.20;;;;;;;13.99;67.92;100990.78;6049549;28;20034;-66
2022/05/28 11:52:53;;;;;;;4.10;1.33;;;;;;;14.51;64.69;100990.63;6055529;28;20030;-67
2022/05/28 11:55:52;;;;;;;7.28;1.05;;;;;;;14.43;64.82;100974.59;6065998;28;20033;-67
2022/05/28 11:58:55;;;;;;;5.93;1.83;;;;;;;14.85;62.36;100981.47;6048122;28;20420;-67
2022/05/28 12:01:53;;;;;;;3.38;1.20;;;;;;;15.02;63.33;100970.78;6086684;28;20044;-67
2022/05/28 12:04:49;;;;;;;6.80;1.63;;;;;;;15.06;61.21;100972.09;6048675;28;20042;-67
2022/05/28 12:07:46;;;;;;;4.70;1.25;;;;;;;15.59;62.92;100968.84;6064692;28;20116;-67
2022/05/28 12:10:53;;;;;;;5.45;0.98;;;;;;;15.05;55.11;100976.63;6050039;28;20030;-67
2022/05/28 12:13:53;;;;;;;4.38;0.88;;;;;;;14.55;58.25;100952.75;6054841;28;20038;-68
2022/05/28 12:17:11;;;;;;;5.72;1.10;;;;;;;14.08;59.73;100988.97;6082021;28;20153;-67
2022/05/28 12:20:11;;;;;;;4.93;1.02;;;;;;;14.25;60.67;100980.84;6048373;28;20473;-67
2022/05/28 12:23:06;;;;;;;;;;;;;;;14.62;60.53;100979.63;6050362;28;20109;-67
2022/05/28 12:26:05;;;;;;;5.70;1.30;;;;;;;14.38;61.18;100969.72;6049264;28;19925;-66
2022/05/28 12:29:01;;;;;;;3.90;0.93;;;;;;;14.15;59.96;100969.50;6075219;28;20528;-67
2022/05/28 12:32:15;;;;;;;2.75;0.90;;;;;;;15.02;58.69;100968.94;6045584;28;20478;-67
2022/05/28 12:35:13;;;;;;;3.45;0.80;;;;;;;15.96;55.45;100979.72;6055923;28;20069;-66
2022/05/28 12:38:10;;;;;;;4.20;1.15;;;;;;;15.65;54.76;100971.69;6057743;28;20106;-67
2022/05/28 12:41:35;;;;;;;5.20;1.23;;;;;;;16.36;53.46;100966.13;6051176;28;20034;-67
2022/05/28 12:44:30;;;;;;;1.48;0.80;;;;;;;16.40;52.28;100970.13;6049200;28;20038;-67
2022/05/28 12:47:27;;;;;;;5.28;1.02;;;;;;;16.74;54.90;100963.56;6052659;28;20068;-67
2022/05/28 12:50:48;;;;;;;6.28;1.27;;;;;;;16.88;52.06;100954.72;6047784;28;20482;-67
2022/05/28 12:53:53;;;;;;;4.53;1.40;;;;;;;16.79;49.80;100964.69;6059008;28;20065;-67
2022/05/28 12:56:49;;;;;;;8.07;1.27;;;;;;;16.15;52.88;100962.41;6050848;28;20038;-67
2022/05/28 12:59:45;;;;;;;6.82;1.20;;;;;;;15.81;54.22;100952.06;6053282;28;20048;-67
2022/05/28 13:02:45;;;;;;;5.38;1.00;;;;;;;15.46;52.15;100958.72;6052585;28;20030;-66
2022/05/28 13:05:45;;;;;;;4.68;0.98;;;;;;;15.54;53.99;100972.06;6046593;28;20042;-66
2022/05/28 13:09:01;;;;;;;6.95;0.98;;;;;;;15.82;52.61;100972.44;6082649;28;20038;-67
2022/05/28 13:12:12;;;;;;;3.97;1.00;;;;;;;15.97;50.73;100966.19;6071112;28;20054;-67
2022/05/28 13:15:32;;;;;;;5.90;0.90;;;;;;;15.27;54.20;100975.91;6052033;28;20494;-67
2022/05/28 13:18:35;;;;;;;3.08;0.80;;;;;;;15.19;56.81;100967.09;6073163;28;20030;-67
2022/05/28 13:21:38;;;;;;;5.72;1.38;;;;;;;15.41;55.16;100951.16;6067719;28;20041;-67
2022/05/28 13:24:52;;;;;;;6.28;1.30;;;;;;;15.91;53.89;100968.72;6052682;28;20038;-67
2022/05/28 13:27:59;;;;;;;4.72;1.00;;;;;;;15.38;54.04;100978.22;6055777;28;20449;-67
2022/05/28 13:31:06;;;;;;;10.32;5.47;;;;;;;14.88;55.21;100974.94;6051975;28;20041;-67
2022/05/28 13:34:02;;;;;;;;;;;;;;;15.70;52.85;100976.50;6054311;28;20061;-67
2022/05/28 13:36:58;;;;;;;8.30;1.65;;;;;;;16.36;51.82;100971.47;6054276;28;19913;-66
2022/05/28 13:39:55;;;;;;;6.32;1.58;;;;;;;16.67;50.70;100971.47;6051412;28;20069;-66
2022/05/28 13:42:51;;;;;;;6.70;1.10;;;;;;;16.36;50.42;100958.09;6052150;28;20030;-66
2022/05/28 13:45:49;;;;;;;6.25;1.80;;;;;;;16.20;52.16;100968.09;6067830;28;20080;-66
2022/05/28 13:48:51;;;;;;;6.78;1.77;;;;;;;16.55;50.25;100957.66;6053660;28;20046;-67
2022/05/28 13:51:52;;;;;;;5.35;1.10;;;;;;;16.17;49.82;100963.09;6052185;28;20455;-67
2022/05/28 13:54:59;;;;;;;5.20;1.55;;;;;;;16.46;47.23;100957.88;6050429;28;20070;-67
2022/05/28 13:57:54;;;;;;;5.72;1.27;;;;;;;16.74;49.37;100964.38;6052648;28;20083;-66
2022/05/28 14:01:02;;;;;;;5.95;1.30;;;;;;;15.70;49.65;100977.34;6051584;28;20030;-66
2022/05/28 14:04:09;;;;;;;8.18;1.45;;;;;;;14.78;52.13;100969.75;6053379;28;20037;-67
2022/05/28 14:07:05;;;;;;;8.65;1.63;;;;;;;14.40;54.40;100980.25;6049199;28;20116;-67
2022/05/28 14:10:05;;;;;;;7.07;1.30;;;;;;;14.23;53.94;100969.53;6049623;28;20042;-67